Time;durP1;ratioP1;P1;durP2;ratioP2;P2;SDS_P1;SDS_P2;PMS_P1;PMS_P2;Temp;Humidity;BMP_temperature;BMP_pressure;BME280_temperature;BME280_humidity;BME280_pressure;Samples;Min_cycle;Max_cycle;Signal;HPM_P1;HPM_P2
2021/10/25 00:01:06;;;;;;;14.38;3.33;;;;;;;8.40;95.79;101611.41;6162937;23;20075;-80
2021/10/25 00:03:32;;;;;;;11.82;3.20;;;;;;;8.25;95.36;101595.13;6140156;23;20071;-81
2021/10/25 00:05:57;;;;;;;15.23;3.63;;;;;;;8.37;95.58;101607.19;6190643;23;20060;-81
2021/10/25 00:08:23;;;;;;;15.52;3.80;;;;;;;7.99;95.39;101538.94;6142282;23;20009;-80
2021/10/25 00:10:48;;;;;;;11.98;2.90;;;;;;;8.03;95.34;101537.59;6203758;23;20021;-81
2021/10/25 00:13:14;;;;;;;12.43;3.45;;;;;;;8.24;94.75;101563.91;6200599;23;20031;-81
2021/10/25 00:15:39;;;;;;;9.90;3.13;;;;;;;8.37;95.53;101584.91;6192281;23;20009;-81
2021/10/25 00:18:06;;;;;;;12.95;3.00;;;;;;;8.37;94.85;101583.03;6192659;23;20087;-79
2021/10/25 00:20:31;;;;;;;15.00;2.88;;;;;;;8.36;95.08;101589.44;6172729;23;20008;-81
2021/10/25 00:22:56;;;;;;;10.25;2.88;;;;;;;8.33;95.56;101584.38;6168932;23;20009;-80
2021/10/25 00:25:22;;;;;;;11.32;3.15;;;;;;;8.19;95.40;101560.91;6217502;23;20412;-80
2021/10/25 00:27:47;;;;;;;13.45;3.40;;;;;;;8.23;95.60;101567.63;6192094;23;20005;-80
2021/10/25 00:30:13;;;;;;;9.63;3.15;;;;;;;8.03;94.79;101534.06;6173065;23;20016;-80
2021/10/25 00:32:39;;;;;;;10.30;2.95;;;;;;;8.28;94.70;101567.97;6200208;23;20036;-81
2021/10/25 00:35:06;;;;;;;14.05;2.95;;;;;;;8.06;95.10;101533.75;6218988;23;20026;-80
2021/10/25 00:37:31;;;;;;;15.30;2.92;;;;;;;8.22;95.09;101555.22;6218508;23;20078;-81
2021/10/25 00:39:57;;;;;;;11.02;2.60;;;;;;;8.21;94.82;101553.53;6193310;23;20016;-80
2021/10/25 00:42:23;;;;;;;9.32;2.75;;;;;;;8.15;94.96;101544.31;6226067;23;20053;-81
2021/10/25 00:44:48;;;;;;;10.60;2.65;;;;;;;8.25;94.56;101549.53;6198703;23;20043;-80
2021/10/25 00:47:14;;;;;;;11.77;3.47;;;;;;;8.27;94.22;101552.88;6168979;23;20012;-81
2021/10/25 00:49:40;;;;;;;10.30;2.85;;;;;;;8.17;94.44;101530.75;6219431;23;20000;-80
2021/10/25 00:52:05;;;;;;;12.80;3.17;;;;;;;8.33;94.12;101541.50;6193312;23;20036;-80
2021/10/25 00:54:34;;;;;;;9.50;2.85;;;;;;;8.33;94.40;101552.22;6218258;23;20019;-80
2021/10/25 00:57:03;;;;;;;12.48;2.65;;;;;;;8.18;94.43;101517.19;6192858;23;20015;-81
2021/10/25 00:59:33;;;;;;;11.73;3.13;;;;;;;8.35;94.01;101550.22;6220005;23;20008;-81
2021/10/25 01:02:01;;;;;;;14.05;3.17;;;;;;;8.09;93.54;101512.81;6193151;23;20019;-80
2021/10/25 01:04:27;;;;;;;7.75;2.60;;;;;;;8.28;93.45;101538.47;6219915;23;20000;-80
2021/10/25 01:06:54;;;;;;;9.20;2.90;;;;;;;8.28;93.76;101538.47;6219473;23;20012;-80
2021/10/25 01:09:19;;;;;;;11.43;3.40;;;;;;;8.31;93.32;101534.59;6192991;23;20012;-80
2021/10/25 01:11:46;;;;;;;8.32;2.97;;;;;;;8.24;93.19;101515.66;6192261;23;20411;-81
2021/10/25 01:14:11;;;;;;;7.40;3.03;;;;;;;8.31;92.92;101526.56;6193263;23;20009;-81
2021/10/25 01:16:37;;;;;;;10.88;3.35;;;;;;;8.32;92.43;101530.94;6193151;23;20019;-80
2021/10/25 01:19:03;;;;;;;9.02;3.03;;;;;;;8.33;92.66;101522.72;6167223;23;20411;-80
2021/10/25 01:21:28;;;;;;;8.52;3.20;;;;;;;8.31;92.43;101514.03;6218764;23;20005;-80
2021/10/25 01:23:55;;;;;;;10.32;3.13;;;;;;;8.30;92.69;101520.38;6169977;23;20090;-81
2021/10/25 01:26:22;;;;;;;9.35;3.13;;;;;;;7.93;92.46;101451.97;6219112;23;20005;-80
2021/10/25 01:28:49;;;;;;;11.52;3.25;;;;;;;8.29;92.14;101496.41;6225783;23;20015;-80
2021/10/25 01:31:18;;;;;;;10.60;3.38;;;;;;;8.42;92.67;101511.03;6222451;23;20004;-80
2021/10/25 01:33:45;;;;;;;9.25;3.25;;;;;;;8.47;92.43;101505.97;6193201;23;20001;-81
2021/10/25 01:36:11;;;;;;;12.90;3.30;;;;;;;8.51;91.99;101495.78;6192937;23;20074;-80
2021/10/25 01:38:36;;;;;;;10.95;3.08;;;;;;;8.54;91.96;101503.47;6196057;23;20388;-80
2021/10/25 01:41:02;;;;;;;9.15;3.33;;;;;;;8.60;91.60;101488.53;6152217;23;20063;-80
2021/10/25 01:43:27;;;;;;;10.43;3.33;;;;;;;8.49;91.33;101470.13;6224573;23;20008;-80
2021/10/25 01:45:53;;;;;;;11.20;2.95;;;;;;;8.71;91.60;101485.53;6192617;23;20023;-80
2021/10/25 01:48:19;;;;;;;9.57;3.13;;;;;;;8.74;91.66;101479.81;6170341;23;20016;-80
2021/10/25 01:50:44;;;;;;;14.45;3.05;;;;;;;8.72;92.12;101464.91;6227894;23;20032;-80
2021/10/25 01:53:10;;;;;;;11.85;3.25;;;;;;;8.66;91.98;101448.47;6197139;23;20131;-81
2021/10/25 01:55:36;;;;;;;12.85;3.30;;;;;;;8.81;91.92;101472.75;6221307;23;20399;-80
2021/10/25 01:58:02;;;;;;;10.82;3.13;;;;;;;8.83;92.22;101465.34;6218588;23;20075;-80
2021/10/25 02:00:28;;;;;;;12.27;3.22;;;;;;;8.82;91.99;101463.69;6191914;23;20000;-80
2021/10/25 02:02:53;;;;;;;10.02;3.03;;;;;;;8.85;92.16;101460.66;6167834;23;20110;-80
2021/10/25 02:05:19;;;;;;;10.52;2.90;;;;;;;8.77;91.04;101435.69;6166977;23;20469;-80
2021/10/25 02:07:44;;;;;;;9.52;2.60;;;;;;;8.66;91.44;101415.44;6167405;23;20008;-81
2021/10/25 02:10:11;;;;;;;13.27;3.33;;;;;;;8.84;91.38;101442.91;6191381;23;20039;-80
2021/10/25 02:12:36;;;;;;;9.35;2.65;;;;;;;8.84;91.58;101444.72;6191639;23;20058;-80
2021/10/25 02:15:02;;;;;;;12.93;2.72;;;;;;;8.85;90.77;101438.38;6168052;23;20074;-81
2021/10/25 02:17:29;;;;;;;10.25;3.47;;;;;;;8.83;91.04;101437.69;6191845;23;20008;-81
2021/10/25 02:19:54;;;;;;;11.88;3.28;;;;;;;8.86;90.27;101435.50;6166885;23;20004;-81
2021/10/25 02:22:19;;;;;;;9.75;2.90;;;;;;;8.91;90.08;101435.84;6192406;23;20376;-80
2021/10/25 02:24:47;;;;;;;10.80;3.10;;;;;;;8.96;90.18;101440.66;6191061;23;20012;-80
2021/10/25 02:27:14;;;;;;;9.95;3.22;;;;;;;8.95;90.43;101430.94;6192287;23;20071;-80
2021/10/25 02:29:39;;;;;;;10.48;3.17;;;;;;;8.87;90.22;101415.72;6217056;23;20442;-81
2021/10/25 02:32:06;;;;;;;8.40;2.88;;;;;;;8.89;90.82;101410.16;6168049;23;20012;-80
2021/10/25 02:34:33;;;;;;;9.55;2.90;;;;;;;8.96;90.58;101421.88;6192209;23;20008;-80
2021/10/25 02:36:59;;;;;;;11.02;3.10;;;;;;;8.90;91.04;101414.53;6149346;23;20022;-80
2021/10/25 02:39:27;;;;;;;9.98;3.60;;;;;;;8.87;90.62;101422.91;6172982;23;20004;-80
2021/10/25 02:41:53;;;;;;;12.43;3.00;;;;;;;8.89;91.15;101419.06;6193013;23;20012;-81
2021/10/25 02:44:18;;;;;;;14.63;3.38;;;;;;;8.78;90.50;101410.56;6218059;23;20088;-80
2021/10/25 02:46:43;;;;;;;9.63;2.90;;;;;;;8.86;90.66;101422.06;6192737;23;20399;-81
2021/10/25 02:49:09;;;;;;;10.45;3.40;;;;;;;8.57;90.41;101385.09;6194963;23;20013;-80
2021/10/25 02:51:34;;;;;;;10.10;3.08;;;;;;;8.73;90.72;101416.41;6179281;23;20009;-80
2021/10/25 02:54:00;;;;;;;9.13;3.30;;;;;;;8.37;91.15;101368.53;6193794;23;20019;-80
2021/10/25 02:56:25;;;;;;;12.98;3.08;;;;;;;8.57;90.83;101405.72;6225763;23;20019;-80
2021/10/25 02:58:51;;;;;;;7.13;2.88;;;;;;;8.33;91.88;101371.72;6169327;23;20012;-81
2021/10/25 03:01:17;;;;;;;10.32;2.95;;;;;;;8.40;91.49;101397.72;6191998;23;20004;-80
2021/10/25 03:03:43;;;;;;;10.48;3.60;;;;;;;8.38;91.98;101398.91;6192273;23;20012;-81
2021/10/25 03:06:09;;;;;;;13.10;3.88;;;;;;;8.38;91.87;101404.28;6192998;23;20008;-81
2021/10/25 03:08:34;;;;;;;11.93;3.78;;;;;;;8.32;92.11;101404.91;6194791;23;20008;-81
2021/10/25 03:11:00;;;;;;;10.65;3.53;;;;;;;8.36;92.45;101406.25;6166928;23;20074;-81
2021/10/25 03:13:25;;;;;;;13.05;3.90;;;;;;;8.31;92.67;101401.41;6220047;23;20016;-81
2021/10/25 03:15:51;;;;;;;12.45;3.80;;;;;;;8.15;93.28;101378.13;6221264;23;20032;-79
2021/10/25 03:18:17;;;;;;;11.05;3.85;;;;;;;8.15;93.19;101375.44;6191848;23;20404;-80
2021/10/25 03:20:44;;;;;;;14.68;3.80;;;;;;;8.33;93.62;101387.81;6217785;23;20063;-80
2021/10/25 03:23:10;;;;;;;12.88;3.72;;;;;;;8.33;93.05;101385.97;6192294;23;20098;-81
2021/10/25 03:25:35;;;;;;;10.25;3.70;;;;;;;8.32;94.07;101373.56;6166934;23;20042;-82
2021/10/25 03:28:01;;;;;;;8.82;3.90;;;;;;;8.30;93.52;101375.56;6192892;23;20008;-81
2021/10/25 03:30:27;;;;;;;12.55;4.10;;;;;;;8.25;93.51;101380.63;6192999;23;20348;-81
2021/10/25 03:32:52;;;;;;;12.98;3.85;;;;;;;8.12;94.36;101373.09;6218354;23;20075;-81
2021/10/25 03:35:18;;;;;;;12.63;4.03;;;;;;;8.12;94.22;101383.00;6167575;23;20445;-79
2021/10/25 03:37:44;;;;;;;12.43;4.28;;;;;;;7.94;94.70;101365.22;6220199;23;20012;-81
2021/10/25 03:40:10;;;;;;;14.85;4.70;;;;;;;7.89;94.45;101366.75;6173415;23;20017;-80
2021/10/25 03:42:45;;;;;;;10.93;4.47;;;;;;;7.95;94.66;101374.13;6225519;23;20012;-81
2021/10/25 03:47:58;;;;;;;15.25;5.53;;;;;;;7.64;94.89;101334.56;6176937;23;20051;-80
2021/10/25 03:50:28;;;;;;;15.25;4.72;;;;;;;7.76;94.27;101369.91;6221798;23;20001;-81
2021/10/25 03:55:34;;;;;;;14.80;5.38;;;;;;;7.67;94.85;101362.88;6193009;23;20070;-81
2021/10/25 04:01:13;;;;;;;11.57;4.85;;;;;;;7.58;95.45;101355.84;6226952;23;20020;-79
2021/10/25 04:28:21;;;;;;;13.95;6.40;;;;;;;7.29;97.24;101338.41;6228518;23;20019;-80
2021/10/25 04:30:53;;;;;;;19.55;6.85;;;;;;;7.27;97.54;101335.88;6170417;23;20453;-79
2021/10/25 04:33:19;;;;;;;15.13;6.97;;;;;;;7.24;98.00;101340.72;6192085;23;20011;-79
2021/10/25 04:35:44;;;;;;;18.08;8.18;;;;;;;7.22;97.94;101338.22;6168194;23;20012;-81
2021/10/25 04:38:10;;;;;;;14.18;7.57;;;;;;;7.13;98.36;101317.78;6195682;23;20000;-81
2021/10/25 04:40:35;;;;;;;16.50;6.65;;;;;;;7.26;97.96;101333.38;6225642;23;20013;-82
2021/10/25 04:43:01;;;;;;;15.63;7.00;;;;;;;7.26;98.48;101320.00;6180417;23;20299;-82
2021/10/25 04:45:28;;;;;;;14.57;6.28;;;;;;;7.32;98.41;101326.50;6200216;23;20071;-81
2021/10/25 04:47:57;;;;;;;16.33;6.93;;;;;;;7.22;98.65;101314.13;6196870;23;20036;-80
2021/10/25 04:50:23;;;;;;;11.40;6.25;;;;;;;7.37;98.84;101321.50;6198305;23;20457;-81
2021/10/25 04:52:49;;;;;;;13.60;6.20;;;;;;;7.16;98.61;101287.19;6215752;23;20000;-82
2021/10/25 04:55:15;;;;;;;15.40;6.38;;;;;;;7.42;99.18;101319.19;6214349;23;20020;-81
2021/10/25 04:57:41;;;;;;;16.58;6.15;;;;;;;7.33;98.82;101304.13;6233773;23;20064;-81
2021/10/25 05:00:07;;;;;;;13.75;6.07;;;;;;;7.43;99.54;101318.19;6230216;23;20051;-81
2021/10/25 05:02:32;;;;;;;14.95;6.18;;;;;;;7.44;99.50;101307.28;6231607;23;20019;-82
2021/10/25 05:04:58;;;;;;;12.13;6.32;;;;;;;7.31;99.33;101296.22;6205585;23;20005;-82
2021/10/25 05:07:25;;;;;;;14.38;6.85;;;;;;;7.44;99.82;101307.28;6206778;23;20016;-82
2021/10/25 05:09:50;;;;;;;16.10;6.60;;;;;;;7.47;99.37;101309.63;6237353;23;19996;-81
2021/10/25 05:12:15;;;;;;;13.68;6.80;;;;;;;7.26;99.69;101269.13;6231853;23;20056;-82
2021/10/25 05:14:43;;;;;;;20.85;6.70;;;;;;;7.48;99.71;101313.16;6204288;23;20280;-82
2021/10/25 05:17:09;;;;;;;18.40;7.40;;;;;;;7.50;100.00;101309.31;6228909;23;20044;-81
2021/10/25 05:19:35;;;;;;;17.55;6.78;;;;;;;7.47;100.00;101300.78;6228288;23;20027;-81
2021/10/25 05:22:00;;;;;;;17.42;6.82;;;;;;;7.37;99.77;101282.19;6229606;23;20004;-81
2021/10/25 05:24:26;;;;;;;15.82;7.00;;;;;;;7.35;99.82;101278.84;6204070;23;20004;-82
2021/10/25 05:26:53;;;;;;;16.88;6.80;;;;;;;7.40;100.00;101289.88;6179617;23;20083;-80
2021/10/25 05:29:18;;;;;;;16.75;7.05;;;;;;;7.43;100.00;101289.56;6205541;23;20008;-81
2021/10/25 05:31:45;;;;;;;14.68;6.95;;;;;;;7.42;100.00;101282.53;6203618;23;20043;-80
2021/10/25 05:34:13;;;;;;;16.35;7.00;;;;;;;7.39;100.00;101284.72;6204662;23;20359;-82
2021/10/25 05:36:41;;;;;;;14.82;7.05;;;;;;;7.23;100.00;101253.41;6179347;23;20005;-81
2021/10/25 05:39:09;;;;;;;17.80;7.22;;;;;;;7.32;100.00;101270.28;6179310;23;20009;-82
2021/10/25 05:41:36;;;;;;;18.13;7.45;;;;;;;7.39;100.00;101274.00;6203550;23;20074;-81
2021/10/25 05:44:05;;;;;;;17.52;7.07;;;;;;;7.29;100.00;101264.28;6204845;23;20008;-81
2021/10/25 05:46:30;;;;;;;19.50;8.38;;;;;;;7.24;100.00;101250.56;6202794;23;20012;-80
2021/10/25 05:48:57;;;;;;;17.13;7.63;;;;;;;7.26;100.00;101259.25;6203836;23;20009;-81
2021/10/25 05:51:23;;;;;;;14.05;7.70;;;;;;;7.39;100.00;101277.50;6204784;23;20013;-81
2021/10/25 05:53:49;;;;;;;16.17;8.27;;;;;;;7.45;100.00;101284.03;6229407;23;20000;-81
2021/10/25 05:56:15;;;;;;;18.75;8.10;;;;;;;7.40;100.00;101265.78;6228972;23;20008;-82
2021/10/25 05:58:40;;;;;;;19.05;7.80;;;;;;;7.37;100.00;101255.41;6202497;23;20008;-82
2021/10/25 06:01:15;;;;;;;15.75;7.75;;;;;;;7.40;100.00;101260.44;6230765;23;20142;-82
2021/10/25 06:03:43;;;;;;;19.85;8.13;;;;;;;7.59;100.00;101278.03;6207975;23;20008;-83
2021/10/25 06:06:09;;;;;;;17.92;7.80;;;;;;;7.54;100.00;101270.47;6207979;23;19997;-82
2021/10/25 06:08:35;;;;;;;18.10;8.52;;;;;;;7.67;100.00;101282.53;6180475;23;20009;-81
2021/10/25 06:11:00;;;;;;;13.88;7.45;;;;;;;7.70;100.00;101255.41;6203998;23;20029;-82
2021/10/25 06:13:37;;;;;;;17.67;7.85;;;;;;;7.39;100.00;101197.19;6232743;23;20035;-81
2021/10/25 06:16:35;;;;;;;20.13;8.18;;;;;;;7.86;100.00;101273.31;6205686;23;20016;-81
2021/10/25 06:18:51;;;;;;;18.75;8.25;;;;;;;7.92;100.00;101270.78;6233945;23;20008;-82
2021/10/25 06:21:19;;;;;;;18.10;7.80;;;;;;;8.03;100.00;101279.47;6183000;23;20009;-82
2021/10/25 06:23:45;;;;;;;17.90;8.73;;;;;;;7.92;100.00;101249.34;6206984;23;20020;-81
2021/10/25 06:26:12;;;;;;;19.90;8.90;;;;;;;8.13;100.00;101270.22;6205867;23;20005;-81
2021/10/25 06:28:37;;;;;;;17.65;8.50;;;;;;;8.10;100.00;101259.00;6178745;23;20024;-82
2021/10/25 06:31:05;;;;;;;12.70;7.72;;;;;;;8.20;100.00;101270.38;6231136;23;20004;-82
2021/10/25 06:33:40;;;;;;;18.35;7.60;;;;;;;8.02;100.00;101242.97;6204215;23;20015;-83
2021/10/25 06:36:06;;;;;;;16.23;7.70;;;;;;;8.32;100.00;101282.41;6208893;23;20039;-82
2021/10/25 06:38:41;;;;;;;16.58;7.93;;;;;;;8.37;100.00;101276.50;6184445;23;20005;-83
2021/10/25 06:41:06;;;;;;;;;;;;;;;8.35;100.00;101282.06;6214091;23;20009;-83
2021/10/25 06:43:32;;;;;;;17.92;7.40;;;;;;;8.30;100.00;101262.97;6211545;23;19951;-82
2021/10/25 06:45:57;;;;;;;16.40;7.25;;;;;;;8.49;100.00;101283.22;6209333;23;20020;-82
2021/10/25 06:48:23;;;;;;;16.83;7.13;;;;;;;8.53;100.00;101284.53;6224042;23;20062;-80
2021/10/25 06:50:49;;;;;;;14.65;6.80;;;;;;;8.52;100.00;101282.03;6219653;23;20412;-80
2021/10/25 06:53:17;;;;;;;17.15;7.00;;;;;;;8.51;100.00;101280.34;6217241;23;20310;-79
2021/10/25 06:55:43;;;;;;;19.48;7.15;;;;;;;8.50;100.00;101279.50;6215562;23;20075;-78
2021/10/25 06:58:11;;;;;;;20.67;6.97;;;;;;;8.57;100.00;101279.66;6217625;23;20008;-79
2021/10/25 07:00:36;;;;;;;14.68;6.13;;;;;;;8.58;100.00;101286.72;6164581;23;20008;-79
2021/10/25 07:03:02;;;;;;;19.67;6.97;;;;;;;8.58;100.00;101292.06;6216183;23;20040;-79
2021/10/25 07:05:33;;;;;;;18.77;7.53;;;;;;;8.36;100.00;101254.22;6216747;23;20004;-79
2021/10/25 07:07:59;;;;;;;12.68;6.47;;;;;;;8.62;100.00;101296.91;6189639;23;20004;-78
2021/10/25 07:10:25;;;;;;;18.17;6.82;;;;;;;8.63;100.00;101298.56;6140652;23;20012;-80
2021/10/25 07:12:51;;;;;;;20.33;7.05;;;;;;;8.66;100.00;101302.75;6217935;23;20009;-79
2021/10/25 07:15:18;;;;;;;15.13;7.07;;;;;;;8.69;100.00;101303.25;6190909;23;20027;-79
2021/10/25 07:20:29;;;;;;;16.40;6.50;;;;;;;8.83;100.00;101307.03;6227670;23;20115;-79
2021/10/25 08:06:53;;;;;;;17.30;5.32;;;;;;;9.80;99.40;101304.69;6216407;23;20023;-79
2021/10/25 08:12:09;;;;;;;15.63;5.63;;;;;;;9.98;99.43;101314.28;6193680;23;20090;-80
2021/10/25 08:14:38;;;;;;;17.58;5.45;;;;;;;10.04;98.48;101310.84;6191218;23;20012;-80
2021/10/25 08:17:04;;;;;;;18.73;5.43;;;;;;;9.93;98.92;101276.34;6166096;23;20009;-79
2021/10/25 08:19:30;;;;;;;15.32;5.78;;;;;;;10.14;98.49;101310.59;6215688;23;20154;-79
2021/10/25 08:22:11;;;;;;;15.50;5.30;;;;;;;10.14;98.56;101308.75;6189853;23;20009;-79
2021/10/25 08:24:44;;;;;;;17.80;5.68;;;;;;;10.17;98.04;101302.16;6215622;23;20023;-79
2021/10/25 08:27:09;;;;;;;18.45;6.20;;;;;;;10.17;97.62;101288.72;6216276;23;20023;-79
2021/10/25 08:29:37;;;;;;;22.35;6.57;;;;;;;10.31;97.95;101306.75;6215840;23;20032;-79
2021/10/25 08:35:21;;;;;;;17.13;5.35;;;;;;;10.29;97.83;101296.16;6193796;23;20070;-79
2021/10/25 08:40:38;;;;;;;18.60;5.60;;;;;;;10.40;97.71;101304.78;6216284;23;20016;-80
2021/10/25 08:43:05;;;;;;;17.75;5.78;;;;;;;10.42;97.32;101302.75;6188973;23;20040;-79
2021/10/25 08:45:33;;;;;;;18.45;5.90;;;;;;;10.40;96.97;101294.00;6165259;23;20023;-80
2021/10/25 08:47:59;;;;;;;18.70;5.30;;;;;;;10.37;96.94;101272.88;6190787;23;20004;-79
2021/10/25 08:50:33;;;;;;;17.20;5.88;;;;;;;10.37;97.04;101283.66;6164998;23;20008;-79
2021/10/25 08:52:59;;;;;;;15.00;5.82;;;;;;;10.47;97.15;101294.97;6192697;23;20004;-79
2021/10/25 08:55:24;;;;;;;19.23;6.00;;;;;;;10.35;97.37;101278.44;6195857;23;20008;-80
2021/10/25 08:57:51;;;;;;;18.88;5.88;;;;;;;10.47;97.20;101289.59;6220059;23;20009;-80
2021/10/25 09:00:19;;;;;;;15.75;5.50;;;;;;;10.47;96.78;101295.78;6197295;23;19992;-78
2021/10/25 09:02:56;;;;;;;13.30;5.57;;;;;;;10.45;96.99;101294.31;6191467;23;20019;-78
2021/10/25 09:05:23;;;;;;;22.05;6.18;;;;;;;10.26;96.54;101253.47;6217286;23;20004;-79
2021/10/25 09:08:02;;;;;;;21.08;6.05;;;;;;;10.49;96.86;101295.59;6190394;23;20094;-79
2021/10/25 09:10:30;;;;;;;17.90;5.55;;;;;;;10.37;97.09;101268.34;6191400;23;20083;-80
2021/10/25 09:13:06;;;;;;;15.25;5.45;;;;;;;10.49;96.93;101295.59;6216187;23;20017;-79
2021/10/25 09:15:38;;;;;;;17.95;5.25;;;;;;;10.47;97.25;101289.59;6190570;23;20284;-79
2021/10/25 09:18:13;;;;;;;19.90;5.90;;;;;;;10.45;97.03;101288.94;6190574;23;20001;-79
2021/10/25 09:20:52;;;;;;;15.93;5.95;;;;;;;10.45;96.83;101286.22;6218197;23;19996;-80
2021/10/25 09:23:21;;;;;;;20.88;5.93;;;;;;;10.50;97.22;101284.66;6217094;23;20075;-79
2021/10/25 09:25:55;;;;;;;16.25;5.15;;;;;;;10.54;96.79;101280.56;6217293;23;20003;-79
2021/10/25 09:28:28;;;;;;;19.13;5.63;;;;;;;10.60;96.81;101268.22;6190391;23;20005;-79
2021/10/25 09:30:59;;;;;;;19.65;6.13;;;;;;;10.58;96.77;101257.63;6189722;23;20427;-79
2021/10/25 09:33:32;;;;;;;17.15;5.88;;;;;;;10.71;96.61;101266.91;6189965;23;20008;-79
2021/10/25 09:36:03;;;;;;;14.77;5.35;;;;;;;10.76;96.74;101267.16;6169610;23;20078;-80
2021/10/25 09:50:00;;;;;;;21.02;5.30;;;;;;;10.92;95.73;101268.78;6216481;23;20065;-80
2021/10/25 09:52:31;;;;;;;14.00;5.00;;;;;;;10.90;95.68;101262.78;6191037;23;20008;-79
2021/10/25 09:54:58;;;;;;;16.80;5.70;;;;;;;10.94;95.69;101264.06;6191815;23;20004;-80
2021/10/25 09:57:28;;;;;;;14.48;5.25;;;;;;;10.93;95.09;101254.34;6192164;23;20004;-79
2021/10/25 10:00:03;;;;;;;13.05;4.93;;;;;;;10.89;94.88;101240.38;6218656;23;20004;-81
2021/10/25 10:02:30;;;;;;;16.50;5.30;;;;;;;11.03;94.62;101266.44;6217948;23;20008;-81
2021/10/25 10:04:58;;;;;;;17.33;5.68;;;;;;;10.69;94.49;101199.78;6174087;23;20008;-79
2021/10/25 10:07:25;;;;;;;17.73;5.57;;;;;;;11.00;94.70;101264.13;6196273;23;20016;-79
2021/10/25 10:09:52;;;;;;;16.02;5.30;;;;;;;10.90;94.05;101249.31;6168570;23;20311;-80
2021/10/25 10:12:20;;;;;;;15.80;5.60;;;;;;;10.76;94.11;101235.72;6166602;23;20016;-80
2021/10/25 10:14:58;;;;;;;18.65;5.43;;;;;;;10.67;94.46;101219.88;6191643;23;20406;-78
2021/10/25 10:17:29;;;;;;;13.57;5.18;;;;;;;10.75;94.23;101236.72;6218549;23;20308;-80
2021/10/25 10:19:59;;;;;;;15.85;5.15;;;;;;;10.88;94.56;101254.88;6217848;23;20000;-80
2021/10/25 10:22:27;;;;;;;16.60;5.70;;;;;;;10.82;94.48;101236.78;6192231;23;20013;-80
2021/10/25 10:24:54;;;;;;;12.38;5.35;;;;;;;10.82;93.87;101244.88;6191668;23;20008;-79
2021/10/25 10:27:21;;;;;;;16.25;5.60;;;;;;;10.85;94.36;101255.25;6191685;23;20467;-80
2021/10/25 10:29:54;;;;;;;14.77;5.40;;;;;;;10.82;94.24;101250.25;6167791;23;20021;-79
2021/10/25 10:32:21;;;;;;;10.77;5.28;;;;;;;10.85;93.81;101259.81;6197142;23;20092;-79
2021/10/25 10:34:50;;;;;;;13.57;5.18;;;;;;;10.84;93.68;101250.06;6169097;23;20043;-79
2021/10/25 10:37:27;;;;;;;14.90;4.97;;;;;;;10.84;93.51;101245.53;6193204;23;20307;-81
2021/10/25 10:40:06;;;;;;;17.05;6.10;;;;;;;10.82;93.24;101245.69;6192192;23;20004;-79
2021/10/25 10:42:32;;;;;;;15.15;5.18;;;;;;;10.78;92.69;101236.34;6220082;23;20008;-79
2021/10/25 10:45:00;;;;;;;16.65;5.63;;;;;;;10.87;92.13;101249.69;6217494;23;20012;-80
2021/10/25 10:47:39;;;;;;;16.85;5.63;;;;;;;10.82;92.12;101234.94;6197954;23;20008;-80
2021/10/25 10:50:18;;;;;;;17.27;5.32;;;;;;;10.88;92.25;101236.03;6228043;23;20004;-78
2021/10/25 10:52:50;;;;;;;17.08;5.10;;;;;;;10.98;92.23;101239.25;6190513;23;20508;-78
2021/10/25 10:55:20;;;;;;;16.92;5.78;;;;;;;11.03;91.84;101220.66;6215588;23;20001;-78
2021/10/25 11:00:35;;;;;;;15.63;5.40;;;;;;;11.07;91.96;101226.50;6215121;23;20005;-79
2021/10/25 11:03:21;;;;;;;18.55;5.40;;;;;;;11.05;92.06;101220.47;6213578;23;20028;-79
2021/10/25 11:05:51;;;;;;;14.35;5.43;;;;;;;10.91;91.71;101189.06;6205215;23;20032;-79
2021/10/25 11:08:22;;;;;;;11.35;5.32;;;;;;;10.93;91.60;101195.94;6189313;23;20004;-79
2021/10/25 11:11:16;;;;;;;15.15;5.20;;;;;;;11.09;91.96;101213.66;6215906;23;20388;-78
2021/10/25 11:13:58;;;;;;;12.98;5.00;;;;;;;10.98;91.33;101189.94;6188989;23;20019;-79
2021/10/25 11:16:39;;;;;;;16.17;5.00;;;;;;;11.19;91.47;101214.19;6189827;23;20023;-79
2021/10/25 11:19:06;;;;;;;14.95;6.00;;;;;;;11.31;90.94;101221.75;6221781;23;20004;-79
2021/10/25 11:21:45;;;;;;;11.90;5.32;;;;;;;11.39;90.95;101224.28;6222509;23;20415;-80
2021/10/25 11:24:16;;;;;;;18.88;5.65;;;;;;;11.51;90.58;101226.28;6216037;23;20058;-79
2021/10/25 11:26:43;;;;;;;14.95;5.20;;;;;;;11.56;90.41;101220.31;6189106;23;20004;-79
2021/10/25 11:29:16;;;;;;;15.70;5.97;;;;;;;11.60;90.04;101216.19;6214475;23;20000;-79
2021/10/25 11:31:51;;;;;;;13.63;5.72;;;;;;;11.51;90.01;101198.50;6214025;23;20016;-79
2021/10/25 11:34:30;;;;;;;17.85;6.20;;;;;;;11.65;89.89;101213.72;6188405;23;20341;-79
2021/10/25 11:37:19;;;;;;;20.45;6.20;;;;;;;11.68;89.92;101210.63;6215080;23;20107;-79
2021/10/25 11:40:11;;;;;;;15.38;6.00;;;;;;;11.56;89.80;101193.38;6214734;23;20020;-79
2021/10/25 11:42:42;;;;;;;17.33;6.25;;;;;;;11.56;89.75;101203.31;6188869;23;20005;-79
2021/10/25 11:45:19;;;;;;;16.88;6.15;;;;;;;11.61;90.45;101219.72;6188471;23;20391;-79
2021/10/25 11:47:46;;;;;;;12.15;5.85;;;;;;;11.42;90.53;101197.81;6214875;23;20001;-79
2021/10/25 11:50:23;;;;;;;17.83;6.35;;;;;;;11.45;91.03;101208.19;6215177;23;20052;-79
2021/10/25 11:52:59;;;;;;;12.43;5.80;;;;;;;11.40;91.74;101212.50;6214929;23;20008;-79
2021/10/25 11:55:30;;;;;;;17.52;6.50;;;;;;;11.31;92.28;101206.41;6214705;23;20431;-78
2021/10/25 11:58:15;;;;;;;20.40;6.72;;;;;;;11.22;92.85;101207.56;6188103;23;20748;-79
2021/10/25 12:00:44;;;;;;;14.80;6.57;;;;;;;11.06;93.12;101187.16;6213602;23;20087;-78
2021/10/25 12:03:22;;;;;;;16.58;6.97;;;;;;;11.12;93.78;101205.19;6163170;23;20013;-78
2021/10/25 12:05:48;;;;;;;20.40;7.13;;;;;;;11.09;94.10;101208.28;6187968;23;20004;-78
2021/10/25 12:08:17;;;;;;;17.98;6.60;;;;;;;11.06;94.10;101214.06;6216491;23;20084;-79
2021/10/25 12:10:44;;;;;;;20.10;6.47;;;;;;;10.98;94.52;101200.72;6166350;23;20005;-79
2021/10/25 12:13:10;;;;;;;19.00;7.25;;;;;;;10.81;95.00;101184.81;6215380;23;20092;-78
2021/10/25 12:15:41;;;;;;;15.82;7.45;;;;;;;10.99;95.14;101215.84;6187161;23;20005;-78
2021/10/25 12:18:08;;;;;;;26.20;7.47;;;;;;;10.93;95.47;101212.06;6214584;23;20181;-78
2021/10/25 12:20:40;;;;;;;16.35;7.30;;;;;;;10.78;95.49;101190.56;6214304;23;20027;-79
2021/10/25 12:23:08;;;;;;;28.88;7.93;;;;;;;10.84;95.93;101202.44;6214524;23;20399;-79
2021/10/25 12:25:36;;;;;;;15.70;7.63;;;;;;;10.83;95.95;101214.25;6188628;23;20004;-78
2021/10/25 12:28:28;;;;;;;20.05;7.90;;;;;;;10.78;95.84;101201.34;6214955;23;20315;-79
2021/10/25 12:31:25;;;;;;;16.20;7.80;;;;;;;10.77;96.54;101188.91;6185561;23;20019;-78
2021/10/25 12:34:01;;;;;;;18.98;8.40;;;;;;;10.80;96.80;101180.47;6193402;23;20333;-78
2021/10/25 12:36:35;;;;;;;20.10;8.43;;;;;;;10.87;96.52;101179.69;6190943;23;20415;-78
2021/10/25 12:39:09;;;;;;;20.08;7.65;;;;;;;10.89;97.11;101172.25;6217568;23;20024;-78
2021/10/25 12:41:55;;;;;;;18.73;8.00;;;;;;;10.79;97.23;101151.88;6191358;23;20015;-79
2021/10/25 12:44:37;;;;;;;17.88;7.82;;;;;;;10.88;96.84;101152.56;6217742;23;20004;-79
2021/10/25 12:47:11;;;;;;;19.58;8.02;;;;;;;10.95;96.84;101158.03;6222524;23;20007;-78
2021/10/25 12:49:37;;;;;;;18.48;8.80;;;;;;;10.97;97.35;101153.28;6190831;23;20038;-78
2021/10/25 12:52:09;;;;;;;20.23;8.75;;;;;;;10.92;97.55;101153.84;6165308;23;20016;-78
2021/10/25 12:54:39;;;;;;;23.13;8.70;;;;;;;10.86;97.36;101130.41;6216537;23;20000;-79
2021/10/25 12:57:23;;;;;;;22.42;8.65;;;;;;;10.95;97.68;101156.16;6190140;23;20300;-78
2021/10/25 13:00:16;;;;;;;20.30;8.88;;;;;;;10.78;97.73;101142.13;6165571;23;20008;-77
2021/10/25 13:02:51;;;;;;;24.50;8.98;;;;;;;10.77;98.13;101145.03;6211889;23;20408;-78
2021/10/25 13:05:31;;;;;;;20.35;8.82;;;;;;;10.81;98.37;101152.50;6194561;23;20470;-78
2021/10/25 13:08:00;;;;;;;17.58;8.80;;;;;;;10.77;98.42;101136.94;6218482;23;20016;-78
2021/10/25 13:10:39;;;;;;;22.60;9.52;;;;;;;10.76;98.12;101136.13;6216357;23;20012;-78
2021/10/25 13:13:09;;;;;;;18.65;9.25;;;;;;;10.78;98.28;101125.97;6212334;23;20047;-78